Somerton, Ohio
Current Conditions -  °F | °C
As of 12:53 PM on Thursday 18 Dec 2014 (Local Time) from KHLG Reporting Station
Overcast Overcast  
Wind Chill: 17°   Ceiling: 1700
Heat Index: 27°   Visibility: 10mi
Dew Point: 20°   Wind: 10mph
Humidity: 75%   Direction: 250°WSW
Pressure: 30.17"   Gusts: NA
Location:  39.9851°N, 81.1697°W
Report Text: KHLG 181753Z 25009KT 10SM OVC017 M03/M07 A3017 RMK AO2 SLP234 T10281067 11022 21028 58010
Loading
Personal Weather Stations






























Interactive Weather Map New forecast layout! Learn more

10-Day Weather Forecast

Advertisements
Track Severe Weather on mobile